Portada
METAR-TAF:

METAR-TAF

Aeropuertos :

Aeropuerto Internacional L.F. Wade

Bermudas, Bermudas

latitud: 32-22N, longitud: 064-41W, altitud: 6 m

Observación

El informe se hizo hace 30 minutos, a las 10:55 UTC
Viento 6 kt del norte-noroeste
Temperatura 20°C
Humedad 60%
Presión 1020 hPa
Visibilidad 10 km o más
Escasas nubes a una altura de 3000 ft
Cielo nuboso a una altura de 7200 ft

METAR: TXKF 031055Z 33006KT 9999 FEW030 BKN072 20/12 Q1020

Hora: 07:25 (11:25 UTC)

Pronóstico

El informe se hizo hace 5 horas y 55 minutos, a las 05:30 UTC
Pronóstico válido del 03 a las 06 UTC al 04 a las 06 UTC
Viento 8 kt del noroeste
Visibilidad 10 km o más
Nubes dispersas a una altura de 4500 ft
Evolucionando progresivamente
del 03 a las 19 UTC al 03 a las 22 UTC
Viento 12 kt del norte
Cielo nuboso a una altura de 3500 ft
chaparrones en las proximidades

TAF: TXKF 030530Z 0306/0406 32008KT 9999 SCT045 BECMG 0319/0322 01012KT VCSH BKN035

Observaciones y pronósticos meteorológicos de más de 4000 aeropuertos (mensajes METAR y TAF).

Los puntos amarillos y rojos representan las estaciones disponibles.

Ponga el ratón en el punto deseado para ver el nombre de la estación.

Haga clic para ver las observaciones y los pronósticos meteorológicos.

Para cambiar el mapa : haga clic en los botones verdes con una cruz de color negro para hacer un zoom, en el botón verde con un guión para alejar o en las flechas verdes para mapas adyacentes.


METAR-TAF: